createdAt,value
2023-02-11T00:00:42.744Z,63.56
2023-02-11T00:01:44.252Z,63.04
2023-02-11T00:02:47.889Z,63.10
2023-02-11T00:03:49.664Z,62.96
2023-02-11T00:04:51.197Z,63.01
2023-02-11T00:05:59.395Z,63.00
2023-02-11T00:07:02.152Z,62.64
2023-02-11T00:08:03.702Z,63.03
2023-02-11T00:09:05.317Z,63.00
2023-02-11T00:10:07.953Z,63.58
2023-02-11T00:11:12.206Z,63.23
2023-02-11T00:12:13.723Z,63.38
2023-02-11T00:13:15.301Z,63.68
2023-02-11T00:14:16.873Z,63.74
2023-02-11T00:15:18.338Z,63.64
2023-02-11T00:16:20.243Z,63.67
2023-02-11T00:17:21.805Z,63.51
2023-02-11T00:18:23.302Z,63.54
2023-02-11T00:19:24.874Z,63.71
2023-02-11T00:20:26.396Z,64.27
2023-02-11T00:21:27.924Z,64.22
2023-02-11T00:22:29.457Z,64.76
2023-02-11T00:23:31.024Z,64.67
2023-02-11T00:24:32.657Z,64.99
2023-02-11T00:25:34.270Z,65.02
2023-02-11T00:26:35.782Z,65.14
2023-02-11T00:27:37.699Z,64.95
2023-02-11T00:28:39.301Z,64.50
2023-02-11T00:29:43.125Z,64.34
2023-02-11T00:30:44.760Z,64.42
2023-02-11T00:31:46.417Z,63.78
2023-02-11T00:32:47.961Z,64.06
2023-02-11T00:33:49.560Z,63.58
2023-02-11T00:34:52.248Z,63.51
2023-02-11T00:35:53.779Z,63.29
2023-02-11T00:36:55.498Z,63.28
2023-02-11T00:37:57.067Z,63.51
2023-02-11T00:38:59.065Z,63.44
2023-02-11T00:40:00.703Z,63.46
2023-02-11T00:41:02.170Z,63.27
2023-02-11T00:42:03.753Z,63.19
2023-02-11T00:43:05.254Z,63.53
2023-02-11T00:44:06.707Z,63.40
2023-02-11T00:45:09.804Z,63.08
2023-02-11T00:46:11.463Z,63.48
2023-02-11T00:47:13.003Z,63.27
2023-02-11T00:48:14.673Z,63.16
2023-02-11T00:49:16.182Z,63.01
2023-02-11T00:50:17.682Z,62.91
2023-02-11T00:51:19.152Z,63.43
2023-02-11T00:52:20.659Z,63.20
2023-02-11T00:53:22.214Z,63.33
2023-02-11T00:54:23.804Z,63.26
2023-02-11T00:55:25.281Z,63.40
2023-02-11T00:56:26.810Z,63.23
2023-02-11T00:57:28.316Z,64.02
2023-02-11T00:58:29.850Z,63.76
2023-02-11T00:59:31.359Z,63.54
2023-02-11T01:00:32.902Z,64.09
2023-02-11T01:01:34.780Z,64.06
2023-02-11T01:02:36.494Z,63.85
2023-02-11T01:03:38.311Z,63.99
2023-02-11T01:04:39.796Z,64.00
2023-02-11T01:05:42.119Z,63.98
2023-02-11T01:06:44.561Z,63.63
2023-02-11T01:07:46.194Z,63.54
2023-02-11T01:08:47.722Z,63.44
2023-02-11T01:09:49.301Z,63.17
2023-02-11T01:11:00.267Z,63.13
2023-02-11T01:12:01.828Z,63.22
2023-02-11T01:13:03.730Z,63.32
2023-02-11T01:14:05.201Z,63.04
2023-02-11T01:15:07.037Z,63.63
2023-02-11T01:16:09.204Z,63.21
2023-02-11T01:17:10.825Z,63.16
2023-02-11T01:18:12.321Z,63.26
2023-02-11T01:19:13.797Z,63.18
2023-02-11T01:20:19.779Z,63.25
2023-02-11T01:21:21.307Z,63.31
2023-02-11T01:22:24.498Z,63.30
2023-02-11T01:23:26.067Z,63.27
2023-02-11T01:24:27.597Z,62.87
2023-02-11T01:25:29.158Z,63.03
2023-02-11T01:26:31.112Z,63.17
2023-02-11T01:27:33.040Z,63.12
2023-02-11T01:28:34.670Z,63.27
2023-02-11T01:29:36.302Z,63.51
2023-02-11T01:30:37.747Z,63.05
2023-02-11T01:31:39.403Z,62.77
2023-02-11T01:32:41.045Z,62.86
2023-02-11T01:33:43.551Z,63.21
2023-02-11T01:34:45.112Z,63.42
2023-02-11T01:35:47.872Z,62.97
2023-02-11T01:36:49.493Z,63.07
2023-02-11T01:37:50.974Z,63.25
2023-02-11T01:38:52.752Z,63.01
2023-02-11T01:39:55.137Z,62.82
2023-02-11T01:40:57.898Z,63.21
2023-02-11T01:41:59.380Z,63.14
2023-02-11T01:43:00.923Z,63.18
2023-02-11T01:44:20.922Z,62.64
2023-02-11T01:45:39.025Z,62.96
2023-02-11T01:46:40.523Z,62.80
2023-02-11T01:47:42.070Z,62.95
2023-02-11T01:49:03.997Z,63.07
2023-02-11T01:50:05.507Z,62.96
2023-02-11T01:51:08.471Z,62.90
2023-02-11T01:52:26.639Z,62.89
2023-02-11T01:53:46.725Z,62.92
2023-02-11T01:55:08.662Z,62.99
2023-02-11T01:56:33.146Z,62.64
2023-02-11T01:57:35.244Z,62.91
2023-02-11T01:58:36.804Z,62.77
2023-02-11T01:59:39.540Z,63.08
2023-02-11T02:00:42.630Z,62.64
2023-02-11T02:01:45.156Z,62.70
2023-02-11T02:02:49.214Z,62.62
2023-02-11T02:03:50.774Z,62.50
2023-02-11T02:05:18.391Z,61.95
2023-02-11T02:06:22.619Z,62.55
2023-02-11T02:07:29.274Z,62.84
2023-02-11T02:08:34.995Z,62.86
2023-02-11T02:09:38.062Z,63.10
2023-02-11T02:10:40.778Z,62.84
2023-02-11T02:11:42.265Z,62.87
2023-02-11T02:12:43.749Z,63.02
2023-02-11T02:13:45.303Z,62.90
2023-02-11T02:14:47.229Z,63.54
2023-02-11T02:15:52.738Z,63.53
2023-02-11T02:16:54.598Z,63.59
2023-02-11T02:17:56.114Z,63.75
2023-02-11T02:19:05.320Z,63.89
2023-02-11T02:20:14.758Z,64.06
2023-02-11T02:21:19.785Z,64.77
2023-02-11T02:22:30.418Z,64.40
2023-02-11T02:23:44.221Z,65.07
2023-02-11T02:24:48.815Z,64.96
2023-02-11T02:25:53.161Z,65.02
2023-02-11T02:27:13.152Z,65.14
2023-02-11T02:28:14.756Z,64.96
2023-02-11T02:29:22.399Z,64.63
2023-02-11T02:30:40.034Z,64.84
2023-02-11T02:32:00.362Z,64.95
2023-02-11T02:33:20.545Z,64.81
2023-02-11T02:34:24.848Z,64.52
2023-02-11T02:35:38.436Z,64.72
2023-02-11T02:36:44.063Z,64.00
2023-02-11T02:37:45.584Z,64.11
2023-02-11T02:38:48.985Z,64.29
2023-02-11T02:39:50.636Z,64.08
2023-02-11T02:40:53.664Z,63.73
2023-02-11T02:41:55.134Z,63.87
2023-02-11T02:42:56.614Z,63.39
2023-02-11T02:43:58.157Z,63.14
2023-02-11T02:44:59.637Z,63.38
2023-02-11T02:46:30.126Z,63.14
2023-02-11T02:47:31.699Z,63.48
2023-02-11T02:48:35.745Z,62.83
2023-02-11T02:49:37.218Z,63.16
2023-02-11T02:50:38.778Z,62.85
2023-02-11T02:51:49.131Z,63.30
2023-02-11T02:53:00.658Z,62.92
2023-02-11T02:54:02.174Z,62.94
2023-02-11T02:55:22.488Z,63.07
2023-02-11T02:56:26.304Z,63.32
2023-02-11T02:57:32.816Z,62.74
2023-02-11T02:58:37.111Z,62.99
2023-02-11T03:00:07.935Z,62.79
2023-02-11T03:01:21.860Z,62.58
2023-02-11T03:02:25.298Z,62.61
2023-02-11T03:03:29.570Z,62.96
2023-02-11T03:04:35.543Z,62.85
2023-02-11T03:05:52.506Z,62.51
2023-02-11T03:07:06.057Z,62.45
2023-02-11T03:08:09.493Z,62.62
2023-02-11T03:09:15.830Z,63.26
2023-02-11T03:10:19.401Z,62.36
2023-02-11T03:11:20.911Z,63.02
2023-02-11T03:12:22.381Z,62.87
2023-02-11T03:13:25.194Z,63.02
2023-02-11T03:14:26.889Z,62.48
2023-02-11T03:15:28.478Z,62.66
2023-02-11T03:16:30.076Z,62.83
2023-02-11T03:17:31.654Z,62.97
2023-02-11T03:18:33.130Z,62.71
2023-02-11T03:19:36.173Z,62.76
2023-02-11T03:20:37.662Z,63.07
2023-02-11T03:21:39.270Z,63.04
2023-02-11T03:22:48.406Z,62.81
2023-02-11T03:23:51.109Z,62.50
2023-02-11T03:24:52.588Z,62.26
2023-02-11T03:25:58.576Z,62.38
2023-02-11T03:27:02.083Z,62.23
2023-02-11T03:28:06.867Z,62.23
2023-02-11T03:29:08.487Z,62.65
2023-02-11T03:30:10.038Z,62.50
2023-02-11T03:31:11.630Z,62.85
2023-02-11T03:32:22.247Z,62.62
2023-02-11T03:33:35.802Z,62.34
2023-02-11T03:34:45.965Z,62.36
2023-02-11T03:35:50.664Z,62.33
2023-02-11T03:36:54.571Z,61.83
2023-02-11T03:37:57.710Z,62.68
2023-02-11T03:38:59.312Z,62.18
2023-02-11T03:40:05.254Z,62.45
2023-02-11T03:41:07.089Z,62.70
2023-02-11T03:42:08.792Z,62.28
2023-02-11T03:43:11.399Z,62.31
2023-02-11T03:44:12.906Z,62.71
2023-02-11T03:45:15.619Z,62.67
2023-02-11T03:46:18.301Z,62.71
2023-02-11T03:47:20.238Z,62.50
2023-02-11T03:48:39.121Z,62.69
2023-02-11T03:49:40.588Z,62.66
2023-02-11T03:50:42.098Z,62.45
2023-02-11T03:51:43.581Z,62.33
2023-02-11T03:52:45.165Z,62.42
2023-02-11T03:53:46.713Z,61.96
2023-02-11T03:54:49.254Z,62.47
2023-02-11T03:55:51.397Z,62.00
2023-02-11T03:56:54.096Z,62.63
2023-02-11T03:57:55.765Z,62.74
2023-02-11T03:58:57.465Z,62.29
2023-02-11T03:59:59.028Z,62.35
2023-02-11T04:01:02.422Z,62.50
2023-02-11T04:02:03.987Z,62.47
2023-02-11T04:03:05.818Z,62.05
2023-02-11T04:04:07.377Z,62.13
2023-02-11T04:05:09.623Z,62.45
2023-02-11T04:06:11.144Z,62.21
2023-02-11T04:07:12.701Z,62.29
2023-02-11T04:08:14.157Z,62.18
2023-02-11T04:09:16.126Z,61.94
2023-02-11T04:10:17.756Z,62.17
2023-02-11T04:11:19.292Z,62.30
2023-02-11T04:12:20.838Z,62.58
2023-02-11T04:13:22.301Z,62.34
2023-02-11T04:14:23.833Z,62.11
2023-02-11T04:15:25.421Z,62.61
2023-02-11T04:16:26.987Z,62.59
2023-02-11T04:17:28.543Z,62.71
2023-02-11T04:18:30.010Z,62.75
2023-02-11T04:19:31.519Z,62.72
2023-02-11T04:20:33.057Z,62.58
2023-02-11T04:21:34.519Z,62.64
2023-02-11T04:22:36.132Z,63.46
2023-02-11T04:23:37.613Z,63.13
2023-02-11T04:24:39.343Z,63.63
2023-02-11T04:25:40.879Z,63.70
2023-02-11T04:26:44.213Z,63.92
2023-02-11T04:27:45.691Z,64.29
2023-02-11T04:28:47.133Z,64.79
2023-02-11T04:29:48.652Z,64.39
2023-02-11T04:30:50.994Z,64.40
2023-02-11T04:31:52.635Z,64.70
2023-02-11T04:32:54.501Z,64.51
2023-02-11T04:33:56.307Z,64.73
2023-02-11T04:34:57.798Z,64.38
2023-02-11T04:35:59.316Z,64.37
2023-02-11T04:37:00.821Z,64.30
2023-02-11T04:38:02.336Z,64.38
2023-02-11T04:39:03.978Z,64.28
2023-02-11T04:40:05.710Z,64.42
2023-02-11T04:41:07.224Z,64.10
2023-02-11T04:42:08.679Z,64.16
2023-02-11T04:43:10.156Z,63.75
2023-02-11T04:44:11.669Z,63.85
2023-02-11T04:45:13.201Z,63.90
2023-02-11T04:46:14.858Z,63.94
2023-02-11T04:47:16.400Z,64.02
2023-02-11T04:48:17.869Z,63.77
2023-02-11T04:49:19.410Z,63.68
2023-02-11T04:50:20.956Z,63.60
2023-02-11T04:51:22.454Z,63.55
2023-02-11T04:52:23.961Z,63.17
2023-02-11T04:53:25.454Z,63.34
2023-02-11T04:54:26.949Z,62.62
2023-02-11T04:55:28.451Z,62.71
2023-02-11T04:56:30.000Z,62.63
2023-02-11T04:57:31.474Z,62.76
2023-02-11T04:58:32.928Z,62.57
2023-02-11T04:59:34.418Z,62.62
2023-02-11T05:00:35.912Z,62.51
2023-02-11T05:01:37.471Z,62.84
2023-02-11T05:02:39.038Z,62.95
2023-02-11T05:03:40.663Z,63.00
2023-02-11T05:04:42.153Z,63.29
2023-02-11T05:05:43.787Z,63.32
2023-02-11T05:06:45.328Z,63.01
2023-02-11T05:07:46.878Z,63.50
2023-02-11T05:08:48.424Z,62.91
2023-02-11T05:09:49.871Z,63.24
2023-02-11T05:10:51.343Z,63.01
2023-02-11T05:11:53.633Z,63.67
2023-02-11T05:12:56.118Z,63.46
2023-02-11T05:13:57.793Z,62.95
2023-02-11T05:14:59.263Z,63.00
2023-02-11T05:16:00.793Z,63.02
2023-02-11T05:17:02.419Z,62.87
2023-02-11T05:18:04.141Z,62.52
2023-02-11T05:19:05.635Z,62.82
2023-02-11T05:20:07.259Z,62.58
2023-02-11T05:21:09.106Z,62.77
2023-02-11T05:22:10.636Z,62.78
2023-02-11T05:23:12.193Z,62.63
2023-02-11T05:24:13.686Z,62.92
2023-02-11T05:25:15.138Z,62.76
2023-02-11T05:26:16.694Z,62.88
2023-02-11T05:27:18.208Z,62.98
2023-02-11T05:28:19.698Z,62.75
2023-02-11T05:29:21.191Z,62.60
2023-02-11T05:30:22.664Z,62.55
2023-02-11T05:31:24.128Z,62.78
2023-02-11T05:32:25.619Z,62.92
2023-02-11T05:33:27.238Z,62.75
2023-02-11T05:34:28.732Z,63.09
2023-02-11T05:35:30.217Z,62.62
2023-02-11T05:36:33.475Z,62.79
2023-02-11T05:37:35.232Z,62.57
2023-02-11T05:38:36.943Z,63.00
2023-02-11T05:39:38.421Z,62.77
2023-02-11T05:40:39.905Z,62.63
2023-02-11T05:41:41.449Z,62.98
2023-02-11T05:42:42.964Z,62.77
2023-02-11T05:43:44.421Z,62.51
2023-02-11T05:44:45.923Z,62.86
2023-02-11T05:45:47.439Z,63.02
2023-02-11T05:46:49.397Z,63.27
2023-02-11T05:47:50.883Z,62.87
2023-02-11T05:48:52.356Z,62.99
2023-02-11T05:49:53.980Z,63.75
2023-02-11T05:50:55.487Z,63.32
2023-02-11T05:51:56.955Z,63.36
2023-02-11T05:52:58.420Z,63.46
2023-02-11T05:54:00.254Z,63.18
2023-02-11T05:55:01.717Z,63.77
2023-02-11T05:56:03.389Z,63.29
2023-02-11T05:57:04.817Z,63.40
2023-02-11T05:58:06.430Z,63.69
2023-02-11T05:59:07.967Z,63.57
2023-02-11T06:00:09.769Z,63.46
2023-02-11T06:01:16.980Z,63.30
2023-02-11T06:02:18.579Z,63.68
2023-02-11T06:03:20.207Z,63.38
2023-02-11T06:04:21.940Z,63.98
2023-02-11T06:05:23.489Z,63.77
2023-02-11T06:06:25.184Z,64.24
2023-02-11T06:07:26.757Z,64.67
2023-02-11T06:08:28.274Z,64.66
2023-02-11T06:09:29.757Z,64.38
2023-02-11T06:10:31.265Z,64.25
2023-02-11T06:11:32.782Z,64.94
2023-02-11T06:12:34.360Z,64.41
2023-02-11T06:13:35.977Z,64.94
2023-02-11T06:14:37.502Z,64.98
2023-02-11T06:15:39.159Z,64.76
2023-02-11T06:16:40.633Z,65.33
2023-02-11T06:17:42.123Z,65.53
2023-02-11T06:18:43.615Z,65.21
2023-02-11T06:19:45.126Z,64.95
2023-02-11T06:20:46.571Z,64.82
2023-02-11T06:21:48.120Z,64.92
2023-02-11T06:22:49.634Z,65.16
2023-02-11T06:23:51.089Z,65.17
2023-02-11T06:25:01.212Z,65.34
2023-02-11T06:26:06.619Z,65.64
2023-02-11T06:27:08.064Z,66.12
2023-02-11T06:28:10.710Z,66.13
2023-02-11T06:29:12.961Z,66.05
2023-02-11T06:30:14.609Z,66.25
2023-02-11T06:31:16.305Z,65.87
2023-02-11T06:32:39.315Z,65.93
2023-02-11T06:33:39.333Z,65.77
2023-02-11T06:34:40.814Z,65.72
2023-02-11T06:35:42.323Z,65.20
2023-02-11T06:36:44.080Z,65.06
2023-02-11T06:37:45.601Z,64.63
2023-02-11T06:38:47.270Z,64.40
2023-02-11T06:39:48.799Z,64.25
2023-02-11T06:40:50.304Z,64.49
2023-02-11T06:41:51.833Z,64.56
2023-02-11T06:42:53.266Z,64.88
2023-02-11T06:43:54.822Z,64.99
2023-02-11T06:44:56.317Z,64.90
2023-02-11T06:45:57.809Z,64.99
2023-02-11T06:46:59.318Z,64.86
2023-02-11T06:48:00.813Z,65.29
2023-02-11T06:49:02.322Z,65.49
2023-02-11T06:50:03.962Z,65.59
2023-02-11T06:51:06.158Z,65.55
2023-02-11T06:52:07.941Z,65.88
2023-02-11T06:53:09.400Z,65.90
2023-02-11T06:54:10.984Z,65.74
2023-02-11T06:55:12.484Z,65.70
2023-02-11T06:56:16.156Z,65.65
2023-02-11T06:57:17.637Z,65.39
2023-02-11T06:58:19.069Z,65.43
2023-02-11T06:59:20.803Z,65.01
2023-02-11T07:00:22.287Z,64.46
2023-02-11T07:01:24.063Z,64.60
2023-02-11T07:02:25.641Z,64.12
2023-02-11T07:03:27.141Z,64.38
2023-02-11T07:04:28.610Z,64.16
2023-02-11T07:05:30.089Z,63.84
2023-02-11T07:06:31.583Z,64.25
2023-02-11T07:07:34.302Z,64.40
2023-02-11T07:08:36.051Z,64.41
2023-02-11T07:09:37.541Z,63.91
2023-02-11T07:10:39.104Z,64.45
2023-02-11T07:11:40.569Z,64.08
2023-02-11T07:12:42.049Z,63.85
2023-02-11T07:13:43.575Z,63.61
2023-02-11T07:14:45.047Z,64.01
2023-02-11T07:15:46.560Z,64.16
2023-02-11T07:16:48.090Z,64.59
2023-02-11T07:17:49.572Z,64.71
2023-02-11T07:18:51.060Z,64.31
2023-02-11T07:19:52.555Z,64.21
2023-02-11T07:20:54.082Z,64.19
2023-02-11T07:21:55.612Z,63.97
2023-02-11T07:22:57.134Z,64.36
2023-02-11T07:23:58.653Z,64.50
2023-02-11T07:25:00.180Z,64.32
2023-02-11T07:26:04.817Z,63.76
2023-02-11T07:27:06.274Z,64.51
2023-02-11T07:28:07.883Z,64.44
2023-02-11T07:29:09.349Z,64.30
2023-02-11T07:30:11.279Z,64.60
2023-02-11T07:31:13.877Z,64.74
2023-02-11T07:32:15.602Z,64.52
2023-02-11T07:33:17.149Z,65.20
2023-02-11T07:34:18.770Z,65.36
2023-02-11T07:35:20.361Z,65.28
2023-02-11T07:36:21.862Z,65.29
2023-02-11T07:37:23.353Z,65.37
2023-02-11T07:38:24.842Z,65.43
2023-02-11T07:39:27.539Z,64.91
2023-02-11T07:40:31.423Z,65.36
2023-02-11T07:41:36.665Z,65.57
2023-02-11T07:42:41.085Z,65.35
2023-02-11T07:43:42.629Z,65.23
2023-02-11T07:44:44.125Z,65.15
2023-02-11T07:45:45.579Z,64.91
2023-02-11T07:46:49.156Z,65.33
2023-02-11T07:47:50.841Z,65.05
2023-02-11T07:48:52.374Z,65.17
2023-02-11T07:49:56.471Z,64.78
2023-02-11T07:51:11.391Z,64.76
2023-02-11T07:52:12.948Z,64.56
2023-02-11T07:53:14.441Z,63.93
2023-02-11T07:54:15.969Z,63.64
2023-02-11T07:55:17.487Z,63.87
2023-02-11T07:56:19.296Z,64.42
2023-02-11T07:57:20.764Z,63.75
2023-02-11T07:58:22.329Z,63.18
2023-02-11T07:59:24.887Z,62.56
2023-02-11T08:00:26.386Z,62.22
2023-02-11T08:01:28.679Z,62.23
2023-02-11T08:02:30.428Z,61.27
2023-02-11T08:03:31.979Z,62.30
2023-02-11T08:04:33.469Z,61.90
2023-02-11T08:05:37.516Z,62.21
2023-02-11T08:06:40.545Z,61.91
2023-02-11T08:07:42.015Z,62.37
2023-02-11T08:08:43.577Z,62.22
2023-02-11T08:09:45.224Z,62.87
2023-02-11T08:10:46.799Z,62.49
2023-02-11T08:11:48.485Z,62.13
2023-02-11T08:12:50.005Z,62.27
2023-02-11T08:13:51.701Z,61.74
2023-02-11T08:14:53.429Z,61.46
2023-02-11T08:15:57.242Z,61.69
2023-02-11T08:16:58.766Z,61.28
2023-02-11T08:18:00.251Z,61.54
2023-02-11T08:19:03.294Z,61.31
2023-02-11T08:20:05.075Z,60.75
2023-02-11T08:21:07.102Z,59.40
2023-02-11T08:22:08.616Z,58.74
2023-02-11T08:23:10.108Z,58.89
2023-02-11T08:24:11.769Z,59.06
2023-02-11T08:25:13.260Z,58.73
2023-02-11T08:26:15.772Z,58.28
2023-02-11T08:27:17.266Z,58.08
2023-02-11T08:28:18.778Z,57.18
2023-02-11T08:29:20.299Z,56.65
2023-02-11T08:30:21.830Z,56.84
2023-02-11T08:31:24.355Z,56.57
2023-02-11T08:32:25.966Z,56.11
2023-02-11T08:33:27.424Z,56.40
2023-02-11T08:34:28.940Z,55.90
2023-02-11T08:35:30.497Z,56.98
2023-02-11T08:36:32.965Z,57.14
2023-02-11T08:37:34.463Z,57.05
2023-02-11T08:38:35.953Z,56.68
2023-02-11T08:39:37.453Z,57.60
2023-02-11T08:40:38.930Z,57.33
2023-02-11T08:41:40.401Z,56.52
2023-02-11T08:42:41.894Z,57.09
2023-02-11T08:43:43.735Z,56.56
2023-02-11T08:44:45.245Z,56.68
2023-02-11T08:45:46.849Z,56.57
2023-02-11T08:46:48.489Z,56.46
2023-02-11T08:47:49.974Z,55.47
2023-02-11T08:48:51.484Z,56.22
2023-02-11T08:49:53.082Z,55.63
2023-02-11T08:50:55.100Z,55.58
2023-02-11T08:51:59.479Z,54.79
2023-02-11T08:53:00.932Z,55.02
2023-02-11T08:54:02.505Z,54.99
2023-02-11T08:55:04.403Z,54.63
2023-02-11T08:56:06.328Z,54.52
2023-02-11T08:57:07.799Z,54.18
2023-02-11T08:58:09.306Z,54.09
2023-02-11T08:59:12.488Z,53.49
2023-02-11T09:00:14.324Z,53.24
2023-02-11T09:01:17.478Z,52.61
2023-02-11T09:02:19.000Z,53.45
2023-02-11T09:03:20.832Z,53.37
2023-02-11T09:04:22.385Z,53.27
2023-02-11T09:05:23.933Z,53.05
2023-02-11T09:06:25.568Z,52.79
2023-02-11T09:07:27.943Z,52.04
2023-02-11T09:08:29.417Z,51.81
2023-02-11T09:09:30.930Z,51.65
2023-02-11T09:10:32.575Z,51.29
2023-02-11T09:11:34.642Z,51.16
2023-02-11T09:12:36.087Z,51.27
2023-02-11T09:13:37.623Z,50.83
2023-02-11T09:14:39.192Z,51.06
2023-02-11T09:15:40.678Z,50.54
2023-02-11T09:16:42.449Z,51.09
2023-02-11T09:17:43.998Z,50.93
2023-02-11T09:18:45.691Z,51.18
2023-02-11T09:19:47.158Z,51.29
2023-02-11T09:20:49.193Z,51.17
2023-02-11T09:21:50.786Z,51.38
2023-02-11T09:22:52.263Z,51.26
2023-02-11T09:23:53.797Z,51.21
2023-02-11T09:24:55.337Z,51.36
2023-02-11T09:25:56.905Z,50.59
2023-02-11T09:26:58.400Z,50.74
2023-02-11T09:27:59.896Z,50.74
2023-02-11T09:29:01.630Z,50.25
2023-02-11T09:30:03.702Z,50.88
2023-02-11T09:31:06.267Z,50.69
2023-02-11T09:32:09.839Z,50.57
2023-02-11T09:33:11.525Z,50.49
2023-02-11T09:34:13.081Z,51.07
2023-02-11T09:35:14.589Z,50.87
2023-02-11T09:36:16.890Z,51.28
2023-02-11T09:37:18.425Z,51.31
2023-02-11T09:38:19.930Z,51.13
2023-02-11T09:39:21.433Z,50.59
2023-02-11T09:40:22.909Z,51.30
2023-02-11T09:41:27.368Z,51.23
2023-02-11T09:42:43.533Z,50.76
2023-02-11T09:43:45.791Z,51.24
2023-02-11T09:44:47.331Z,50.91
2023-02-11T09:45:49.119Z,50.86
2023-02-11T09:46:54.920Z,50.97
2023-02-11T09:47:56.359Z,50.67
2023-02-11T09:48:57.828Z,50.40
2023-02-11T09:50:12.505Z,50.67
2023-02-11T09:51:19.164Z,50.46
2023-02-11T09:52:37.735Z,49.45
2023-02-11T09:53:40.640Z,50.04
2023-02-11T09:54:48.041Z,49.80
2023-02-11T09:55:55.616Z,49.31
2023-02-11T09:56:57.112Z,49.07
2023-02-11T09:57:58.625Z,49.46
2023-02-11T09:59:00.138Z,49.29
2023-02-11T10:00:02.117Z,49.56
2023-02-11T10:01:35.729Z,49.34
2023-02-11T10:02:44.952Z,49.06
2023-02-11T10:03:55.371Z,49.61
2023-02-11T10:05:02.825Z,49.17
2023-02-11T10:06:10.722Z,49.02
2023-02-11T10:07:12.255Z,49.28
2023-02-11T10:08:19.801Z,49.38
2023-02-11T10:09:40.069Z,48.94
2023-02-11T10:10:50.522Z,48.56
2023-02-11T10:11:52.064Z,48.80
2023-02-11T10:12:53.517Z,48.80
2023-02-11T10:14:11.042Z,48.31
2023-02-11T10:15:14.950Z,47.58
2023-02-11T10:16:23.154Z,47.91
2023-02-11T10:17:38.838Z,47.42
2023-02-11T10:18:44.619Z,47.64
2023-02-11T10:19:52.653Z,47.62
2023-02-11T10:20:54.096Z,46.57
2023-02-11T10:22:03.273Z,47.16
2023-02-11T10:23:15.216Z,47.01
2023-02-11T10:24:16.950Z,46.91
2023-02-11T10:25:20.666Z,47.02
2023-02-11T10:26:22.114Z,47.03
2023-02-11T10:27:26.761Z,47.52
2023-02-11T10:28:31.741Z,47.20
2023-02-11T10:29:37.349Z,47.13
2023-02-11T10:30:59.214Z,47.27
2023-02-11T10:32:01.298Z,47.67
2023-02-11T10:33:21.362Z,47.49
2023-02-11T10:34:22.878Z,47.81
2023-02-11T10:35:24.558Z,47.96
2023-02-11T10:36:30.194Z,48.27
2023-02-11T10:37:31.676Z,48.32
2023-02-11T10:38:33.876Z,48.19
2023-02-11T10:39:35.354Z,47.93
2023-02-11T10:40:36.822Z,48.01
2023-02-11T10:41:39.610Z,47.80
2023-02-11T10:42:41.754Z,48.03
2023-02-11T10:43:43.516Z,47.86
2023-02-11T10:45:00.899Z,47.04
2023-02-11T10:46:02.961Z,47.07
2023-02-11T10:47:24.845Z,47.14
2023-02-11T10:48:35.877Z,46.75
2023-02-11T10:49:37.367Z,47.25
2023-02-11T10:50:38.843Z,46.51
2023-02-11T10:51:40.264Z,46.62
2023-02-11T10:52:41.803Z,46.88
2023-02-11T10:53:43.348Z,47.14
2023-02-11T10:55:03.261Z,46.45
2023-02-11T10:56:04.960Z,46.98
2023-02-11T10:57:06.538Z,46.98
2023-02-11T10:58:18.906Z,46.62
2023-02-11T10:59:30.362Z,46.51
2023-02-11T11:00:40.925Z,45.69
2023-02-11T11:01:53.234Z,45.15
2023-02-11T11:02:56.348Z,45.04
2023-02-11T11:03:59.948Z,45.29
2023-02-11T11:05:03.333Z,44.99
2023-02-11T11:06:10.973Z,45.50
2023-02-11T11:07:20.026Z,45.63
2023-02-11T11:08:21.645Z,45.70
2023-02-11T11:09:32.421Z,46.27
2023-02-11T11:10:44.304Z,45.74
2023-02-11T11:11:51.205Z,46.07
2023-02-11T11:12:52.726Z,45.65
2023-02-11T11:13:54.188Z,45.85
2023-02-11T11:14:59.964Z,46.43
2023-02-11T11:16:13.641Z,46.06
2023-02-11T11:17:18.576Z,46.04
2023-02-11T11:18:23.266Z,46.29
2023-02-11T11:19:25.259Z,46.12
2023-02-11T11:20:29.817Z,46.33
2023-02-11T11:21:33.748Z,46.24
2023-02-11T11:22:36.256Z,46.23
2023-02-11T11:23:37.817Z,46.31
2023-02-11T11:24:44.682Z,46.57
2023-02-11T11:25:46.806Z,46.78
2023-02-11T11:26:53.470Z,46.48
2023-02-11T11:27:56.479Z,46.54
2023-02-11T11:29:01.712Z,46.66
2023-02-11T11:30:03.399Z,46.72
2023-02-11T11:31:05.080Z,46.93
2023-02-11T11:32:26.899Z,46.84
2023-02-11T11:33:29.198Z,47.04
2023-02-11T11:34:33.984Z,47.22
2023-02-11T11:35:35.569Z,47.17
2023-02-11T11:36:38.079Z,47.11
2023-02-11T11:37:39.589Z,47.39
2023-02-11T11:38:45.437Z,47.40
2023-02-11T11:40:12.902Z,47.42
2023-02-11T11:41:14.445Z,47.65
2023-02-11T11:42:29.249Z,47.71
2023-02-11T11:43:30.961Z,47.64
2023-02-11T11:44:35.844Z,47.83
2023-02-11T11:45:37.321Z,47.89
2023-02-11T11:46:39.312Z,48.04
2023-02-11T11:47:58.242Z,48.03
2023-02-11T11:49:17.533Z,48.27
2023-02-11T11:50:26.696Z,48.09
2023-02-11T11:51:28.208Z,48.28
2023-02-11T11:52:32.251Z,48.21
2023-02-11T11:53:52.759Z,48.32
2023-02-11T11:54:59.183Z,48.42
2023-02-11T11:56:04.186Z,48.36
2023-02-11T11:57:10.643Z,48.48
2023-02-11T11:58:18.180Z,48.26
2023-02-11T11:59:20.385Z,48.34
2023-02-11T12:00:24.406Z,48.67
2023-02-11T12:01:28.490Z,48.61
2023-02-11T12:02:32.680Z,48.81
2023-02-11T12:03:34.115Z,48.66
2023-02-11T12:04:35.581Z,48.65
2023-02-11T12:05:55.634Z,48.58
2023-02-11T12:07:16.493Z,48.79
2023-02-11T12:08:17.984Z,48.95
2023-02-11T12:09:28.833Z,48.79
2023-02-11T12:10:46.180Z,48.80
2023-02-11T12:11:53.270Z,48.73
2023-02-11T12:12:54.758Z,49.12
2023-02-11T12:14:11.324Z,49.22
2023-02-11T12:15:15.600Z,49.42
2023-02-11T12:16:34.246Z,49.51
2023-02-11T12:17:45.823Z,49.67
2023-02-11T12:18:47.721Z,49.92
2023-02-11T12:20:05.400Z,50.17
2023-02-11T12:21:12.477Z,50.15
2023-02-11T12:22:28.805Z,49.81
2023-02-11T12:23:36.225Z,50.21
2023-02-11T12:24:46.624Z,50.26
2023-02-11T12:25:48.080Z,50.40
2023-02-11T12:27:10.613Z,49.80
2023-02-11T12:28:18.110Z,50.41
2023-02-11T12:29:28.597Z,50.47
2023-02-11T12:30:35.786Z,50.91
2023-02-11T12:31:40.886Z,50.49
2023-02-11T12:33:17.988Z,51.05
2023-02-11T12:34:29.099Z,50.96
2023-02-11T12:35:49.241Z,51.01
2023-02-11T12:37:07.543Z,50.90
2023-02-11T12:38:16.065Z,50.57
2023-02-11T12:39:23.462Z,50.62
2023-02-11T12:40:43.573Z,51.25
2023-02-11T12:42:03.388Z,51.31
2023-02-11T12:43:17.036Z,51.42
2023-02-11T12:44:37.088Z,51.51
2023-02-11T12:45:59.227Z,51.71
2023-02-11T12:47:00.731Z,51.28
2023-02-11T12:48:05.679Z,51.72
2023-02-11T12:49:22.340Z,51.46
2023-02-11T12:50:26.635Z,51.44
2023-02-11T12:51:46.877Z,51.63
2023-02-11T12:53:07.006Z,51.26
2023-02-11T12:54:11.616Z,51.83
2023-02-11T12:55:25.984Z,51.95
2023-02-11T12:56:40.474Z,51.69
2023-02-11T12:57:41.984Z,51.82
2023-02-11T12:58:45.664Z,51.58
2023-02-11T12:59:56.349Z,51.66
2023-02-11T13:01:01.919Z,51.54
2023-02-11T13:02:04.363Z,51.60
2023-02-11T13:03:05.865Z,51.49
2023-02-11T13:04:13.461Z,51.88
2023-02-11T13:05:28.304Z,51.91
2023-02-11T13:06:32.828Z,52.20
2023-02-11T13:07:39.266Z,52.27
2023-02-11T13:08:45.915Z,52.13
2023-02-11T13:10:10.744Z,52.20
2023-02-11T13:11:15.017Z,52.58
2023-02-11T13:12:35.067Z,52.27
2023-02-11T13:13:45.225Z,52.50
2023-02-11T13:14:46.693Z,52.67
2023-02-11T13:16:07.856Z,52.46
2023-02-11T13:17:30.077Z,52.35
2023-02-11T13:18:51.567Z,52.79
2023-02-11T13:19:58.802Z,52.86
2023-02-11T13:21:08.383Z,52.82
2023-02-11T13:22:13.526Z,52.79
2023-02-11T13:23:20.754Z,53.00
2023-02-11T13:24:22.201Z,52.82
2023-02-11T13:25:23.638Z,52.74
2023-02-11T13:26:29.827Z,52.82
2023-02-11T13:27:40.374Z,53.13
2023-02-11T13:29:02.134Z,53.40
2023-02-11T13:30:24.354Z,53.17
2023-02-11T13:31:27.610Z,53.15
2023-02-11T13:32:41.148Z,53.37
2023-02-11T13:33:43.306Z,53.48
2023-02-11T13:34:44.801Z,53.63
2023-02-11T13:35:48.146Z,53.61
2023-02-11T13:36:58.529Z,54.19
2023-02-11T13:38:00.448Z,54.21
2023-02-11T13:39:03.035Z,54.03
2023-02-11T13:40:04.647Z,54.10
2023-02-11T13:41:21.204Z,54.37
2023-02-11T13:42:22.773Z,54.17
2023-02-11T13:43:25.513Z,54.21
2023-02-11T13:44:27.038Z,54.35
2023-02-11T13:45:36.368Z,54.41
2023-02-11T13:46:49.789Z,54.71
2023-02-11T13:47:55.490Z,54.76
2023-02-11T13:48:57.022Z,54.21